Time;durP1;ratioP1;P1;durP2;ratioP2;P2;SDS_P1;SDS_P2;PMS_P1;PMS_P2;Temp;Humidity;BMP_temperature;BMP_pressure;BME280_temperature;BME280_humidity;BME280_pressure;Samples;Min_cycle;Max_cycle;Signal;HPM_P1;HPM_P2
2022/05/30 00:00:24;;;;;;;1.27;1.27;;;9.40;99.90;;;;;;7378763;19;20760;-75
2022/05/30 00:02:50;;;;;;;1.60;1.50;;;9.30;99.90;;;;;;7377731;19;20355;-74
2022/05/30 00:05:15;;;;;;;1.77;1.67;;;9.30;99.90;;;;;;7377853;19;21089;-74
2022/05/30 00:07:41;;;;;;;1.60;1.50;;;9.10;99.90;;;;;;7378776;19;20349;-71
2022/05/30 00:10:08;;;;;;;1.55;1.45;;;9.00;99.90;;;;;;7378993;19;20480;-71
2022/05/30 00:12:34;;;;;;;2.30;1.60;;;9.00;99.90;;;;;;7377157;19;20390;-71
2022/05/30 00:14:59;;;;;;;1.30;1.30;;;9.00;99.90;;;;;;7374759;19;20363;-70
2022/05/30 00:17:25;;;;;;;1.70;1.60;;;9.00;99.90;;;;;;7374084;19;21121;-72
2022/05/30 00:19:51;;;;;;;2.60;1.43;;;9.00;99.90;;;;;;7378395;19;20383;-74
2022/05/30 00:22:17;;;;;;;1.52;1.42;;;9.00;99.90;;;;;;7375685;19;20371;-73
2022/05/30 00:24:43;;;;;;;1.90;1.80;;;9.00;99.90;;;;;;7375842;19;20376;-78
2022/05/30 00:27:09;;;;;;;1.60;1.50;;;9.00;99.90;;;;;;7375860;19;20418;-74
2022/05/30 00:29:35;;;;;;;1.63;1.53;;;9.00;99.90;;;;;;7376051;19;20392;-80
2022/05/30 00:32:01;;;;;;;1.73;1.63;;;8.90;99.90;;;;;;7373235;19;20454;-73
2022/05/30 00:34:27;;;;;;;1.43;1.33;;;8.90;99.90;;;;;;7373983;19;20866;-73
2022/05/30 00:36:53;;;;;;;1.90;1.50;;;9.00;99.90;;;;;;7371203;19;20356;-74
2022/05/30 00:39:18;;;;;;;1.42;1.30;;;9.00;99.90;;;;;;7355995;19;20361;-75
2022/05/30 00:41:44;;;;;;;1.70;1.60;;;9.00;99.90;;;;;;7367587;19;20891;-72
2022/05/30 00:44:10;;;;;;;3.40;2.90;;;9.00;99.90;;;;;;7379468;19;20340;-72
2022/05/30 00:46:35;;;;;;;3.40;2.30;;;9.00;99.90;;;;;;7376062;19;20345;-76
2022/05/30 00:49:03;;;;;;;2.30;2.10;;;9.00;99.90;;;;;;7375809;19;20345;-75
2022/05/30 00:51:37;;;;;;;3.60;3.00;;;9.00;99.90;;;;;;7375027;19;20374;-75
2022/05/30 00:54:04;;;;;;;4.10;3.30;;;9.00;99.90;;;;;;7374036;19;21169;-75
2022/05/30 00:56:37;;;;;;;4.10;3.38;;;9.00;99.90;;;;;;7375927;19;20377;-72
2022/05/30 00:59:03;;;;;;;2.75;2.55;;;9.00;99.90;;;;;;7376339;19;20448;-73
2022/05/30 01:01:29;;;;;;;4.30;2.72;;;9.00;99.90;;;;;;7373562;19;20436;-79
2022/05/30 01:06:41;;;;;;;4.73;3.60;;;9.00;99.90;;;;;;7376581;19;20370;-72
2022/05/30 01:09:10;;;;;;;4.05;3.42;;;9.00;99.90;;;;;;7373625;19;20353;-71
2022/05/30 01:11:59;;;;;;;3.47;2.60;;;9.10;99.90;;;;;;7374034;19;20349;-77
2022/05/30 01:14:26;;;;;;;3.22;2.30;;;9.10;99.90;;;;;;7376065;19;20455;-74
2022/05/30 01:16:53;;;;;;;2.53;2.30;;;9.10;99.90;;;;;;7374525;19;20356;-75
2022/05/30 01:19:38;;;;;;;3.38;1.92;;;9.20;99.90;;;;;;7377077;19;20400;-73
2022/05/30 01:22:27;;;;;;;1.73;1.58;;;9.20;99.90;;;;;;7372485;19;20363;-74
2022/05/30 01:25:16;;;;;;;1.80;1.70;;;9.10;99.90;;;;;;7375289;19;20388;-73
2022/05/30 01:28:05;;;;;;;1.80;1.70;;;9.10;99.90;;;;;;7375111;19;21139;-73
2022/05/30 01:30:34;;;;;;;2.37;1.70;;;9.10;99.90;;;;;;7372838;19;20412;-72
2022/05/30 01:32:59;;;;;;;1.88;1.77;;;9.10;99.90;;;;;;7375916;19;20360;-78
2022/05/30 01:35:27;;;;;;;1.30;1.20;;;9.10;99.90;;;;;;7372638;19;20797;-71
2022/05/30 01:37:58;;;;;;;1.90;1.80;;;9.10;99.90;;;;;;7373693;19;20382;-76
2022/05/30 01:40:26;;;;;;;1.93;1.80;;;9.10;99.90;;;;;;7376696;19;20389;-75
2022/05/30 01:42:52;;;;;;;2.10;1.90;;;9.10;99.90;;;;;;7373519;19;20353;-72
2022/05/30 01:45:19;;;;;;;2.33;1.92;;;9.10;99.90;;;;;;7374167;19;21380;-74
2022/05/30 01:47:44;;;;;;;1.88;1.77;;;9.00;99.90;;;;;;7374940;19;20766;-76
2022/05/30 01:50:10;;;;;;;1.50;1.40;;;9.10;99.90;;;;;;7378319;19;20332;-72
2022/05/30 01:52:38;;;;;;;1.73;1.63;;;9.00;99.90;;;;;;7374184;19;20360;-74
2022/05/30 01:55:04;;;;;;;1.50;1.40;;;9.00;99.90;;;;;;7374026;19;20359;-75
2022/05/30 01:58:08;;;;;;;1.60;1.50;;;8.90;99.90;;;;;;7373348;19;20385;-73
2022/05/30 02:00:34;;;;;;;1.50;1.40;;;8.90;99.90;;;;;;7373599;19;20309;-71
2022/05/30 02:03:00;;;;;;;1.60;1.50;;;8.90;99.90;;;;;;7373452;19;20342;-73
2022/05/30 02:05:26;;;;;;;1.58;1.48;;;8.90;99.90;;;;;;7373098;19;20979;-75
2022/05/30 02:07:51;;;;;;;1.67;1.57;;;8.80;99.90;;;;;;7372044;19;20353;-71
2022/05/30 02:10:21;;;;;;;1.77;1.67;;;8.70;99.90;;;;;;7376552;19;20337;-73
2022/05/30 02:12:48;;;;;;;1.60;1.50;;;8.70;99.90;;;;;;7370772;19;20371;-75
2022/05/30 02:15:18;;;;;;;1.63;1.52;;;8.60;99.90;;;;;;7372170;19;20355;-76
2022/05/30 02:17:45;;;;;;;1.70;1.60;;;8.60;99.90;;;;;;7372589;19;20472;-72
2022/05/30 02:20:10;;;;;;;1.90;1.80;;;8.60;99.90;;;;;;7371611;19;20412;-78
2022/05/30 02:22:36;;;;;;;1.50;1.40;;;8.60;99.90;;;;;;7372775;19;20361;-72
2022/05/30 02:25:02;;;;;;;1.88;1.77;;;8.50;99.90;;;;;;7372373;19;20359;-71
2022/05/30 02:27:29;;;;;;;1.80;1.70;;;8.40;99.90;;;;;;7372791;19;20356;-74
2022/05/30 02:29:55;;;;;;;1.77;1.67;;;8.40;99.90;;;;;;7373466;19;20383;-73
2022/05/30 02:32:22;;;;;;;1.70;1.60;;;8.40;99.90;;;;;;7371352;19;20337;-75
2022/05/30 02:37:31;;;;;;;1.63;1.52;;;8.30;99.90;;;;;;7374825;19;20400;-74
2022/05/30 02:40:05;;;;;;;1.98;1.88;;;8.30;99.90;;;;;;7374005;19;20341;-74
2022/05/30 02:42:49;;;;;;;2.22;2.03;;;8.20;99.90;;;;;;7373107;19;20352;-77
2022/05/30 02:45:16;;;;;;;2.20;1.75;;;8.10;99.90;;;;;;7375831;19;20704;-74
2022/05/30 02:47:42;;;;;;;2.10;2.00;;;8.10;99.90;;;;;;7374636;19;21056;-82
2022/05/30 02:50:12;;;;;;;1.80;1.70;;;8.00;99.90;;;;;;7373018;19;20346;-74
2022/05/30 02:52:38;;;;;;;2.08;1.88;;;8.00;99.90;;;;;;7372798;19;20367;-74
2022/05/30 02:55:05;;;;;;;1.90;1.80;;;8.10;99.90;;;;;;7370928;19;20343;-75
2022/05/30 02:57:50;;;;;;;1.75;1.60;;;8.00;99.90;;;;;;7378981;19;20380;-78
2022/05/30 03:00:17;;;;;;;1.88;1.77;;;8.10;99.90;;;;;;7379313;19;20333;-78
2022/05/30 03:02:43;;;;;;;1.77;1.67;;;8.00;99.90;;;;;;7377202;19;20367;-78
2022/05/30 03:05:08;;;;;;;2.25;1.70;;;8.00;99.90;;;;;;7376321;19;20761;-77
2022/05/30 03:07:35;;;;;;;1.60;1.50;;;8.00;99.90;;;;;;7381104;19;20369;-73
2022/05/30 03:10:06;;;;;;;1.70;1.60;;;8.00;99.90;;;;;;7380860;19;20874;-73
2022/05/30 03:12:49;;;;;;;2.58;1.80;;;8.00;99.90;;;;;;7380742;19;20356;-74
2022/05/30 03:15:14;;;;;;;2.27;1.90;;;7.90;99.90;;;;;;7376058;19;21084;-76
2022/05/30 03:17:42;;;;;;;1.57;1.47;;;7.80;99.90;;;;;;7379258;19;20375;-73
2022/05/30 03:20:08;;;;;;;1.58;1.48;;;7.90;99.90;;;;;;7379450;19;20696;-73
2022/05/30 03:22:34;;;;;;;1.95;1.83;;;8.00;99.90;;;;;;7385105;19;20360;-71
2022/05/30 03:25:19;;;;;;;1.90;1.70;;;8.00;99.90;;;;;;7379077;19;20369;-70
2022/05/30 03:27:50;;;;;;;2.30;2.10;;;8.10;99.90;;;;;;7379235;19;20369;-73
2022/05/30 03:30:15;;;;;;;1.80;1.70;;;8.10;99.90;;;;;;7381011;19;20340;-73
2022/05/30 03:32:43;;;;;;;2.13;2.03;;;8.10;99.90;;;;;;7380522;19;20340;-70
2022/05/30 03:35:11;;;;;;;1.63;1.52;;;8.10;99.90;;;;;;7378577;19;20347;-71
2022/05/30 03:37:39;;;;;;;1.80;1.70;;;8.10;99.90;;;;;;7377187;19;20353;-70
2022/05/30 03:40:28;;;;;;;1.70;1.60;;;8.20;99.90;;;;;;7382998;19;20348;-71
2022/05/30 03:43:12;;;;;;;2.30;2.10;;;8.20;99.90;;;;;;7381895;19;20368;-73
2022/05/30 03:45:42;;;;;;;2.20;2.10;;;8.20;99.90;;;;;;7376278;19;20364;-71
2022/05/30 03:48:08;;;;;;;1.90;1.80;;;8.10;99.90;;;;;;7377016;19;20451;-71
2022/05/30 03:50:35;;;;;;;2.90;2.65;;;8.10;99.90;;;;;;7379895;19;21269;-71
2022/05/30 03:53:05;;;;;;;2.50;2.03;;;8.30;99.90;;;;;;7351606;19;20467;-71
2022/05/30 03:55:32;;;;;;;2.38;2.10;;;8.10;99.90;;;;;;7376703;19;20386;-74
2022/05/30 03:57:57;;;;;;;2.40;2.05;;;8.10;99.90;;;;;;7378834;19;20356;-71
2022/05/30 04:00:23;;;;;;;2.05;1.95;;;8.10;99.90;;;;;;7382600;19;20360;-71
2022/05/30 04:02:54;;;;;;;1.60;1.50;;;8.10;99.90;;;;;;7376992;19;20424;-73
2022/05/30 04:05:20;;;;;;;2.17;1.97;;;8.30;99.90;;;;;;7376388;19;20420;-74
2022/05/30 04:07:46;;;;;;;4.53;2.30;;;8.30;99.90;;;;;;7374868;19;20385;-71
2022/05/30 04:10:41;;;;;;;2.38;2.17;;;8.40;99.90;;;;;;7377345;19;20368;-71
2022/05/30 04:13:25;;;;;;;2.90;2.25;;;8.50;99.90;;;;;;7378089;19;20351;-71
2022/05/30 04:16:16;;;;;;;2.58;2.20;;;8.50;99.90;;;;;;7374667;19;20372;-71
2022/05/30 04:18:42;;;;;;;2.50;2.15;;;8.60;99.90;;;;;;7375765;19;20977;-72
2022/05/30 04:21:11;;;;;;;2.40;2.20;;;8.60;99.90;;;;;;7376829;19;20341;-71
2022/05/30 04:23:40;;;;;;;2.60;2.40;;;8.70;99.90;;;;;;7376865;19;20755;-73
2022/05/30 04:26:10;;;;;;;10.63;9.63;;;8.80;99.90;;;;;;7370768;19;20858;-71
2022/05/30 04:28:37;;;;;;;2.45;2.25;;;8.90;99.90;;;;;;7373539;19;20512;-71
2022/05/30 04:31:38;;;;;;;2.08;1.98;;;9.00;99.90;;;;;;7373203;19;20355;-71
2022/05/30 04:34:04;;;;;;;2.10;2.00;;;9.10;99.90;;;;;;7373579;19;20357;-71
2022/05/30 04:36:29;;;;;;;2.33;2.13;;;9.10;99.90;;;;;;7370874;19;20368;-70
2022/05/30 04:38:56;;;;;;;2.83;2.63;;;9.20;99.90;;;;;;7374647;19;20377;-72
2022/05/30 04:42:00;;;;;;;2.60;2.40;;;9.20;99.90;;;;;;7374753;19;20364;-71
2022/05/30 04:44:31;;;;;;;2.50;2.30;;;9.20;99.90;;;;;;7374592;19;20376;-70
2022/05/30 04:47:03;;;;;;;2.50;2.10;;;9.30;99.90;;;;;;7368491;19;20364;-70
2022/05/30 04:49:28;;;;;;;2.67;2.20;;;9.40;99.90;;;;;;7374273;19;20696;-70
2022/05/30 04:51:54;;;;;;;2.55;2.35;;;9.60;99.90;;;;;;7375207;19;20383;-72
2022/05/30 04:54:20;;;;;;;2.20;2.00;;;9.50;99.90;;;;;;7372508;19;20740;-70
2022/05/30 04:57:00;;;;;;;2.50;2.30;;;9.70;99.90;;;;;;7367175;19;20714;-70
2022/05/30 04:59:29;;;;;;;2.53;2.33;;;9.70;99.90;;;;;;7369188;19;20384;-71
2022/05/30 05:02:00;;;;;;;2.45;2.25;;;9.80;99.90;;;;;;7373816;19;20356;-71
2022/05/30 05:04:28;;;;;;;2.95;2.65;;;9.90;99.90;;;;;;7369753;19;20874;-71
2022/05/30 05:06:54;;;;;;;3.30;2.23;;;9.90;99.90;;;;;;7368276;19;20348;-71
2022/05/30 05:09:34;;;;;;;2.88;2.42;;;10.00;99.90;;;;;;7369824;19;20439;-71
2022/05/30 05:12:38;;;;;;;2.70;2.50;;;10.00;99.90;;;;;;7369723;19;20375;-71
2022/05/30 05:15:09;;;;;;;2.80;2.47;;;10.10;99.90;;;;;;7365771;19;20364;-71
2022/05/30 05:18:03;;;;;;;2.40;2.20;;;10.10;99.90;;;;;;7373028;19;20361;-71
2022/05/30 05:20:29;;;;;;;3.67;2.50;;;10.20;99.90;;;;;;7375906;19;20355;-71
2022/05/30 05:22:55;;;;;;;2.33;2.13;;;10.30;99.90;;;;;;7376241;19;20391;-71
2022/05/30 05:25:40;;;;;;;2.10;2.00;;;10.40;99.90;;;;;;7376073;19;20348;-71
2022/05/30 05:28:30;;;;;;;2.70;2.50;;;10.50;99.90;;;;;;7377174;19;20364;-71
2022/05/30 05:30:55;;;;;;;2.20;2.07;;;10.50;99.90;;;;;;7377566;19;20369;-71
2022/05/30 05:33:21;;;;;;;3.03;2.83;;;10.50;99.90;;;;;;7375596;19;21100;-71
2022/05/30 05:35:47;;;;;;;4.07;2.50;;;10.40;99.90;;;;;;7375070;19;20340;-71
2022/05/30 05:38:13;;;;;;;2.78;2.53;;;10.50;99.90;;;;;;7375498;19;20345;-71
2022/05/30 05:40:51;;;;;;;2.90;2.60;;;10.70;99.90;;;;;;7375310;19;21432;-72
2022/05/30 05:43:17;;;;;;;4.05;2.70;;;10.90;99.90;;;;;;7376788;19;20349;-71
2022/05/30 05:45:46;;;;;;;2.78;2.58;;;11.00;99.90;;;;;;7376719;19;20355;-72
2022/05/30 05:48:12;;;;;;;3.60;2.70;;;11.00;99.90;;;;;;7377714;19;20436;-71
2022/05/30 05:50:39;;;;;;;2.75;2.53;;;11.10;99.90;;;;;;7377423;19;21053;-71
2022/05/30 05:53:05;;;;;;;5.65;2.70;;;11.00;99.90;;;;;;7373273;19;20360;-72
2022/05/30 05:55:31;;;;;;;2.63;2.42;;;11.10;99.90;;;;;;7374732;19;21214;-71
2022/05/30 05:57:56;;;;;;;3.00;2.50;;;11.20;99.90;;;;;;7376901;19;20390;-70
2022/05/30 06:00:22;;;;;;;2.85;2.60;;;11.30;99.90;;;;;;7378901;19;20356;-71
2022/05/30 06:02:49;;;;;;;3.08;2.78;;;11.40;99.90;;;;;;7372636;19;21276;-71
2022/05/30 06:05:23;;;;;;;2.53;2.33;;;11.60;99.90;;;;;;7377640;19;20419;-70
2022/05/30 06:08:07;;;;;;;2.63;2.42;;;11.50;99.90;;;;;;7376356;19;20379;-70
2022/05/30 06:11:08;;;;;;;4.03;2.58;;;11.40;99.90;;;;;;7377421;19;20390;-71
2022/05/30 06:13:36;;;;;;;2.70;2.50;;;11.40;99.90;;;;;;7373086;19;20360;-71
2022/05/30 06:16:06;;;;;;;4.60;3.43;;;11.50;99.90;;;;;;7374286;19;20348;-71
2022/05/30 06:18:42;;;;;;;3.35;2.75;;;11.60;99.90;;;;;;7375175;19;20356;-72
2022/05/30 06:21:08;;;;;;;3.10;2.70;;;11.80;99.90;;;;;;7372652;19;21249;-71
2022/05/30 06:23:39;;;;;;;2.90;2.70;;;11.80;99.90;;;;;;7374635;19;20368;-71
2022/05/30 06:26:27;;;;;;;2.67;2.47;;;12.00;99.90;;;;;;7377539;19;20348;-70
2022/05/30 06:29:11;;;;;;;3.20;2.90;;;12.10;99.90;;;;;;7375970;19;20356;-71
2022/05/30 06:31:36;;;;;;;2.90;2.60;;;12.10;99.90;;;;;;7369825;19;20375;-71
2022/05/30 06:34:02;;;;;;;3.13;2.83;;;12.20;99.90;;;;;;7370619;19;20353;-72
2022/05/30 06:36:32;;;;;;;3.05;2.78;;;12.20;99.90;;;;;;7373746;19;20344;-71
2022/05/30 06:38:58;;;;;;;2.90;2.67;;;12.40;99.90;;;;;;7374758;19;20368;-71
2022/05/30 06:41:31;;;;;;;2.97;2.77;;;12.60;99.90;;;;;;7374463;19;20365;-70
2022/05/30 06:44:04;;;;;;;3.35;3.05;;;12.80;99.90;;;;;;7374013;19;20421;-71
2022/05/30 06:46:48;;;;;;;3.27;2.97;;;12.70;99.90;;;;;;7375583;19;20910;-71
2022/05/30 06:49:32;;;;;;;3.33;2.50;;;13.00;99.90;;;;;;7378406;19;20405;-71
2022/05/30 06:52:00;;;;;;;2.87;2.53;;;13.20;99.90;;;;;;7371802;19;20357;-71
2022/05/30 06:54:25;;;;;;;3.30;3.00;;;13.30;99.90;;;;;;7370115;19;20384;-70
2022/05/30 06:59:35;;;;;;;3.17;2.85;;;13.30;99.90;;;;;;7376716;19;20379;-71
2022/05/30 07:02:04;;;;;;;3.00;2.80;;;13.50;99.90;;;;;;7374106;19;21390;-71
2022/05/30 07:04:48;;;;;;;2.88;2.67;;;13.80;99.90;;;;;;7373342;19;20351;-70
2022/05/30 07:07:32;;;;;;;2.70;2.50;;;14.00;99.90;;;;;;7374176;19;21027;-70
2022/05/30 07:10:06;;;;;;;2.85;2.55;;;13.90;99.90;;;;;;7375673;19;20368;-70
2022/05/30 07:12:40;;;;;;;3.10;2.78;;;13.90;99.90;;;;;;7372737;19;20364;-70
2022/05/30 07:15:08;;;;;;;2.67;2.28;;;13.90;99.90;;;;;;7371813;19;21292;-70
2022/05/30 07:17:33;;;;;;;3.33;2.90;;;14.10;99.90;;;;;;7373675;19;21155;-70
2022/05/30 07:19:59;;;;;;;3.17;2.67;;;14.40;99.90;;;;;;7375240;19;20364;-70
2022/05/30 07:22:35;;;;;;;2.80;2.60;;;14.60;99.90;;;;;;7371477;19;20358;-70
2022/05/30 07:25:39;;;;;;;2.42;2.22;;;14.90;99.90;;;;;;7374517;19;20985;-71
2022/05/30 07:28:25;;;;;;;2.70;2.50;;;15.10;99.90;;;;;;7374471;19;20750;-70
2022/05/30 07:31:11;;;;;;;2.57;2.37;;;15.40;99.90;;;;;;7373519;19;21912;-68
2022/05/30 07:33:57;;;;;;;2.85;2.08;;;15.40;99.90;;;;;;7374160;19;20369;-69
2022/05/30 07:36:52;;;;;;;2.43;2.23;;;15.40;99.90;;;;;;7375346;19;21221;-68
2022/05/30 07:39:29;;;;;;;3.20;2.00;;;15.90;99.90;;;;;;7373214;19;20403;-69
2022/05/30 07:42:14;;;;;;;2.20;2.00;;;16.20;99.90;;;;;;7372314;19;20341;-70
2022/05/30 07:44:59;;;;;;;2.22;2.03;;;16.20;99.90;;;;;;7381108;19;20359;-68
2022/05/30 07:47:36;;;;;;;2.42;1.90;;;16.00;99.90;;;;;;7380693;19;20348;-69
2022/05/30 07:50:20;;;;;;;1.75;1.60;;;16.20;99.90;;;;;;7384263;19;20344;-69
2022/05/30 07:53:15;;;;;;;2.27;1.47;;;16.50;99.90;;;;;;7377290;19;21014;-69
2022/05/30 07:55:54;;;;;;;1.40;1.30;;;16.70;99.90;;;;;;7379524;19;20375;-69
2022/05/30 07:58:21;;;;;;;1.55;1.45;;;16.80;99.90;;;;;;7380095;19;20357;-69
2022/05/30 08:00:48;;;;;;;1.43;1.33;;;16.90;99.90;;;;;;7377503;19;20923;-69
2022/05/30 08:03:18;;;;;;;1.30;1.20;;;17.20;99.90;;;;;;7378368;19;20352;-69
2022/05/30 08:06:07;;;;;;;1.33;1.23;;;17.30;99.90;;;;;;7378449;19;21114;-69
2022/05/30 08:08:52;;;;;;;1.48;1.38;;;17.60;99.90;;;;;;7379685;19;20379;-69
2022/05/30 08:11:19;;;;;;;1.83;1.50;;;17.90;99.90;;;;;;7380949;19;20367;-68
2022/05/30 08:13:49;;;;;;;2.50;1.40;;;17.90;99.90;;;;;;7372539;19;20459;-69
2022/05/30 08:16:16;;;;;;;1.15;1.15;;;17.60;99.90;;;;;;7378955;19;20436;-69
2022/05/30 08:18:43;;;;;;;1.30;1.20;;;17.30;99.90;;;;;;7377800;19;20368;-70
2022/05/30 08:21:09;;;;;;;1.30;1.20;;;17.80;99.90;;;;;;7377608;19;20352;-70
2022/05/30 08:23:38;;;;;;;1.00;1.00;;;17.70;99.90;;;;;;7378764;19;20368;-69
2022/05/30 08:26:03;;;;;;;1.40;1.30;;;18.10;99.90;;;;;;7378892;19;20454;-70
2022/05/30 08:28:39;;;;;;;1.35;1.20;;;17.90;99.90;;;;;;7378625;19;20369;-70
2022/05/30 08:31:04;;;;;;;2.33;1.30;;;18.00;99.90;;;;;;7378449;19;20385;-70
2022/05/30 08:33:39;;;;;;;1.25;1.20;;;17.40;99.90;;;;;;7377941;19;20336;-70
2022/05/30 08:36:14;;;;;;;1.30;1.20;;;17.50;99.90;;;;;;7381342;19;20423;-71
2022/05/30 08:38:40;;;;;;;1.30;1.20;;;17.50;99.90;;;;;;7377933;19;20451;-70
2022/05/30 08:44:01;;;;;;;1.10;1.10;;;17.70;99.90;;;;;;7376474;19;20344;-70
2022/05/30 08:46:49;;;;;;;1.03;1.00;;;18.30;99.90;;;;;;7377890;19;20351;-70
2022/05/30 08:49:22;;;;;;;1.13;1.00;;;18.20;99.90;;;;;;7376592;19;20352;-70
2022/05/30 08:52:09;;;;;;;1.80;1.30;;;17.90;99.90;;;;;;7374257;19;20372;-71
2022/05/30 08:54:42;;;;;;;1.38;1.27;;;17.60;99.90;;;;;;7374284;19;20735;-71
2022/05/30 08:57:34;;;;;;;1.50;1.40;;;17.60;99.90;;;;;;7376944;19;20365;-70
2022/05/30 09:00:21;;;;;;;1.10;1.10;;;17.50;99.90;;;;;;7378730;19;20692;-71
2022/05/30 09:03:24;;;;;;;1.10;1.10;;;17.40;99.90;;;;;;7271208;19;2004570;-70
2022/05/30 09:06:20;;;;;;;2.00;1.30;;;17.40;99.90;;;;;;7377744;19;20364;-70
2022/05/30 09:08:49;;;;;;;1.27;1.17;;;17.50;99.90;;;;;;7376709;19;20361;-70
2022/05/30 09:11:42;;;;;;;0.82;0.82;;;17.80;99.90;;;;;;7377678;19;21015;-70
2022/05/30 09:14:39;;;;;;;0.80;0.80;;;18.40;99.90;;;;;;7376269;19;20925;-70
2022/05/30 09:17:08;;;;;;;0.93;0.93;;;18.80;99.90;;;;;;7378078;19;20425;-69
2022/05/30 09:19:34;;;;;;;1.20;1.10;;;19.10;99.90;;;;;;7379203;19;20475;-69
2022/05/30 09:22:01;;;;;;;1.10;1.00;;;18.80;99.90;;;;;;7374854;19;20412;-69
2022/05/30 09:24:32;;;;;;;1.40;1.30;;;18.50;99.90;;;;;;7376935;19;20684;-69
2022/05/30 09:26:57;;;;;;;1.90;1.15;;;18.40;99.90;;;;;;7377162;19;20349;-70
2022/05/30 09:29:29;;;;;;;1.30;1.20;;;18.30;99.90;;;;;;7376229;19;20357;-70
2022/05/30 09:32:19;;;;;;;1.98;1.30;;;18.30;99.90;;;;;;7374504;19;20439;-67
2022/05/30 09:35:20;;;;;;;1.23;1.13;;;18.30;99.90;;;;;;7375221;19;20344;-67
2022/05/30 09:38:22;;;;;;;4.07;2.97;;;18.30;99.90;;;;;;7377359;19;20373;-67
2022/05/30 09:41:39;;;;;;;1.48;1.38;;;17.60;99.90;;;;;;7375285;19;20885;-68
2022/05/30 09:44:17;;;;;;;2.20;1.50;;;17.40;99.90;;;;;;7375539;19;20365;-67
2022/05/30 09:46:53;;;;;;;1.60;1.50;;;17.10;99.90;;;;;;7376508;19;20352;-68
2022/05/30 09:49:45;;;;;;;3.13;2.33;;;17.20;99.90;;;;;;7378095;19;20385;-67
2022/05/30 09:52:29;;;;;;;2.22;1.50;;;17.10;99.90;;;;;;7370479;19;20381;-67
2022/05/30 09:54:58;;;;;;;1.50;1.40;;;16.80;99.90;;;;;;7375123;19;20352;-69
2022/05/30 09:57:31;;;;;;;1.20;1.17;;;17.00;99.90;;;;;;7376385;19;20356;-68
2022/05/30 10:00:18;;;;;;;2.80;1.35;;;17.00;99.90;;;;;;7376529;19;20375;-68
2022/05/30 10:02:57;;;;;;;1.70;1.60;;;17.10;99.90;;;;;;7372597;19;20352;-72
2022/05/30 10:05:28;;;;;;;1.77;1.40;;;17.20;99.90;;;;;;7374549;19;20726;-71
2022/05/30 10:08:03;;;;;;;2.10;1.90;;;17.00;99.90;;;;;;7370696;19;20364;-69
2022/05/30 10:10:40;;;;;;;1.60;1.50;;;16.90;99.90;;;;;;7372677;19;20340;-70
2022/05/30 10:13:08;;;;;;;1.70;1.30;;;16.90;99.90;;;;;;7372350;19;20374;-73
2022/05/30 10:16:08;;;;;;;1.27;1.17;;;17.00;99.90;;;;;;7371176;19;20352;-69
2022/05/30 10:18:36;;;;;;;1.45;1.30;;;17.00;99.90;;;;;;7372801;19;20371;-70
2022/05/30 10:21:10;;;;;;;2.20;1.20;;;17.10;99.90;;;;;;7371340;19;20348;-71
2022/05/30 10:30:41;;;;;;;1.17;1.10;;;17.30;99.90;;;;;;7374545;19;20312;-71
2022/05/30 10:34:04;;;;;;;2.10;1.10;;;17.20;99.90;;;;;;7374141;19;20376;-72
2022/05/30 10:36:55;;;;;;;1.35;1.25;;;17.10;99.90;;;;;;7373685;19;20440;-70
2022/05/30 10:39:56;;;;;;;2.83;1.30;;;16.90;99.90;;;;;;7374687;19;20345;-70
2022/05/30 10:42:43;;;;;;;1.25;1.15;;;16.70;99.90;;;;;;7372166;19;20353;-70
2022/05/30 10:45:32;;;;;;;1.63;1.40;;;16.50;99.90;;;;;;7375140;19;20368;-68
2022/05/30 10:47:58;;;;;;;1.40;1.30;;;16.30;99.90;;;;;;7374050;19;20371;-70
2022/05/30 10:50:46;;;;;;;2.13;1.40;;;16.10;99.90;;;;;;7377490;19;20869;-72
2022/05/30 10:53:30;;;;;;;1.63;1.53;;;16.00;99.90;;;;;;7373835;19;20387;-69
2022/05/30 10:56:23;;;;;;;1.70;1.60;;;16.10;99.90;;;;;;7375597;19;20814;-69
2022/05/30 10:58:59;;;;;;;1.60;1.50;;;16.20;99.90;;;;;;7373074;19;20902;-70
2022/05/30 11:01:43;;;;;;;1.60;1.50;;;16.50;99.90;;;;;;7372769;19;20341;-69
2022/05/30 11:04:25;;;;;;;1.60;1.50;;;16.70;99.90;;;;;;7373264;19;20728;-69
2022/05/30 11:06:51;;;;;;;1.58;1.48;;;16.80;99.90;;;;;;7374081;19;20348;-70
2022/05/30 11:09:21;;;;;;;1.77;1.50;;;16.90;99.90;;;;;;7374141;19;20689;-70
2022/05/30 11:12:10;;;;;;;1.63;1.50;;;17.00;99.90;;;;;;7369703;19;20361;-70
2022/05/30 11:14:43;;;;;;;1.50;1.40;;;17.00;99.90;;;;;;7372295;19;20703;-70
2022/05/30 11:17:48;;;;;;;1.80;1.70;;;17.30;99.90;;;;;;7373617;19;20391;-70
2022/05/30 11:20:34;;;;;;;1.40;1.30;;;17.90;99.90;;;;;;7382161;19;20389;-74
2022/05/30 11:23:01;;;;;;;1.40;1.30;;;18.30;99.90;;;;;;7378907;19;20709;-69
2022/05/30 11:25:44;;;;;;;1.40;1.30;;;18.80;99.90;;;;;;7379779;19;20400;-70
2022/05/30 11:28:34;;;;;;;1.70;1.55;;;19.20;99.90;;;;;;7380879;19;20420;-72
2022/05/30 11:31:13;;;;;;;1.50;1.40;;;19.60;99.90;;;;;;7379080;19;21294;-70
2022/05/30 11:33:59;;;;;;;1.50;1.40;;;19.90;99.90;;;;;;7380511;19;20344;-70
2022/05/30 11:36:27;;;;;;;2.00;1.50;;;20.40;99.90;;;;;;7379789;19;20364;-73
2022/05/30 11:39:11;;;;;;;1.48;1.38;;;20.60;99.90;;;;;;7381042;19;20368;-72
2022/05/30 11:41:43;;;;;;;1.67;1.58;;;21.20;99.90;;;;;;7379729;19;20899;-72
2022/05/30 11:44:32;;;;;;;1.40;1.30;;;21.70;99.90;;;;;;7379729;19;20360;-71
2022/05/30 11:47:31;;;;;;;1.38;1.25;;;21.90;99.90;;;;;;7382364;19;20886;-70
2022/05/30 11:50:20;;;;;;;1.43;1.33;;;21.50;98.00;;;;;;7383122;19;20709;-70
2022/05/30 11:52:58;;;;;;;1.00;1.00;;;21.80;99.90;;;;;;7375393;19;20353;-72
2022/05/30 11:55:27;;;;;;;1.30;1.20;;;21.60;96.40;;;;;;7378577;19;20376;-73
2022/05/30 11:57:53;;;;;;;1.40;1.30;;;22.00;94.90;;;;;;7379404;19;20385;-70
2022/05/30 12:00:23;;;;;;;1.55;1.45;;;21.20;90.20;;;;;;7385002;19;21483;-71
2022/05/30 12:03:03;;;;;;;1.25;1.20;;;21.70;92.40;;;;;;7376088;19;20356;-70
2022/05/30 12:05:37;;;;;;;2.47;1.63;;;21.70;92.00;;;;;;7379940;19;20376;-73
2022/05/30 12:08:18;;;;;;;2.60;1.65;;;20.70;90.50;;;;;;7381425;19;20368;-72
2022/05/30 12:11:08;;;;;;;28.73;11.10;;;18.60;88.40;;;;;;7379947;19;20366;-72
2022/05/30 12:13:57;;;;;;;1.95;1.45;;;20.00;97.20;;;;;;7379256;19;21066;-70
2022/05/30 12:16:53;;;;;;;2.85;1.40;;;21.00;94.10;;;;;;7378287;19;20390;-70
2022/05/30 12:25:34;;;;;;;1.58;1.48;;;21.90;94.60;;;;;;7375298;19;20433;-70
2022/05/30 12:28:03;;;;;;;1.30;1.30;;;21.80;93.20;;;;;;7375527;19;20381;-73
2022/05/30 12:30:35;;;;;;;2.10;1.58;;;21.70;91.60;;;;;;7377901;19;20363;-73
2022/05/30 12:33:23;;;;;;;1.90;1.70;;;21.40;93.10;;;;;;7378801;19;20488;-71
2022/05/30 12:36:10;;;;;;;1.80;1.40;;;21.10;93.40;;;;;;7375353;19;20440;-74
2022/05/30 12:38:54;;;;;;;2.30;1.53;;;20.80;91.70;;;;;;7372734;19;20785;-69
2022/05/30 12:41:30;;;;;;;1.70;1.50;;;20.50;93.50;;;;;;7374518;19;20412;-71
2022/05/30 12:43:56;;;;;;;1.80;1.60;;;20.20;94.60;;;;;;7373423;19;20364;-69
2022/05/30 12:46:29;;;;;;;2.70;1.93;;;20.20;95.80;;;;;;7375826;19;20381;-70
2022/05/30 12:49:02;;;;;;;3.43;1.40;;;20.10;97.00;;;;;;7369601;19;20360;-70
2022/05/30 12:51:42;;;;;;;1.70;1.40;;;20.40;93.30;;;;;;7369054;19;20340;-70
2022/05/30 12:54:07;;;;;;;2.60;1.65;;;20.70;93.30;;;;;;7375940;19;20348;-73
2022/05/30 12:56:43;;;;;;;2.03;1.77;;;20.80;95.60;;;;;;7374840;19;21340;-70
2022/05/30 12:59:20;;;;;;;2.10;1.80;;;20.30;95.70;;;;;;7374477;19;22004;-70
2022/05/30 13:01:47;;;;;;;2.10;1.90;;;20.00;94.90;;;;;;7370596;19;20356;-72
2022/05/30 13:04:15;;;;;;;2.40;2.17;;;20.20;96.40;;;;;;7379161;19;20352;-71
2022/05/30 13:06:53;;;;;;;1.30;1.30;;;19.80;95.00;;;;;;7379608;19;20741;-70
2022/05/30 13:09:24;;;;;;;1.60;1.50;;;19.50;95.70;;;;;;7377641;19;20364;-70
2022/05/30 13:12:08;;;;;;;1.73;1.33;;;19.30;96.60;;;;;;7373313;19;20345;-76
2022/05/30 13:14:37;;;;;;;1.48;1.38;;;19.40;97.80;;;;;;7379377;19;21060;-69
2022/05/30 13:17:11;;;;;;;2.17;1.60;;;19.30;97.60;;;;;;7373409;19;20431;-73
2022/05/30 13:19:45;;;;;;;1.50;1.40;;;20.00;96.60;;;;;;7376460;19;20990;-72
2022/05/30 13:22:11;;;;;;;1.50;1.40;;;20.90;94.70;;;;;;7372283;19;20882;-70
2022/05/30 13:24:37;;;;;;;1.43;1.33;;;21.40;93.80;;;;;;7376680;19;20376;-71
2022/05/30 13:27:03;;;;;;;1.50;1.40;;;21.70;93.90;;;;;;7376988;19;20851;-71
2022/05/30 13:29:39;;;;;;;1.30;1.23;;;22.30;93.40;;;;;;7376475;19;20344;-70
2022/05/30 13:32:06;;;;;;;1.75;1.20;;;21.90;91.80;;;;;;7371428;19;20340;-69
2022/05/30 13:34:32;;;;;;;1.40;1.30;;;21.90;92.50;;;;;;7374991;19;20360;-69
2022/05/30 13:36:59;;;;;;;1.58;1.48;;;21.50;92.60;;;;;;7373077;19;20368;-73
2022/05/30 13:39:24;;;;;;;1.42;1.30;;;21.30;94.20;;;;;;7373719;19;20359;-73
2022/05/30 13:41:50;;;;;;;1.67;1.58;;;21.20;94.90;;;;;;7373419;19;20776;-71
2022/05/30 13:44:17;;;;;;;1.40;1.30;;;21.00;94.30;;;;;;7376115;19;20379;-71
2022/05/30 13:46:51;;;;;;;1.87;1.67;;;21.10;96.40;;;;;;7372996;19;20332;-73
2022/05/30 13:49:52;;;;;;;1.98;1.48;;;21.20;93.90;;;;;;7373345;19;20934;-71
2022/05/30 13:52:24;;;;;;;1.60;1.50;;;21.60;94.90;;;;;;7367749;19;20398;-71